Time;durP1;ratioP1;P1;durP2;ratioP2;P2;SDS_P1;SDS_P2;PMS_P1;PMS_P2;Temp;Humidity;BMP_temperature;BMP_pressure;BME280_temperature;BME280_humidity;BME280_pressure;Samples;Min_cycle;Max_cycle;Signal;HPM_P1;HPM_P2
2022/09/19 00:01:07;;;;;;;19.63;2.85;;;;;;;-145.67;100.00;66521.78;4981829;28;20046;-70
2022/09/19 00:03:33;;;;;;;29.50;3.10;;;;;;;-145.67;100.00;66521.78;4967569;28;20035;-69
2022/09/19 00:05:58;;;;;;;15.27;2.78;;;;;;;-145.67;100.00;66521.78;4984235;28;20030;-72
2022/09/19 00:08:24;;;;;;;15.98;2.72;;;;;;;-145.67;100.00;66521.78;4957868;28;20200;-67
2022/09/19 00:10:51;;;;;;;12.35;2.28;;;;;;;-145.67;100.00;66521.78;4968701;28;20030;-72
2022/09/19 00:13:17;;;;;;;17.33;2.45;;;;;;;-145.67;100.00;66521.78;4968437;28;20150;-69
2022/09/19 00:15:47;;;;;;;20.95;3.10;;;;;;;-145.67;100.00;66521.78;4970159;28;20037;-69
2022/09/19 00:18:13;;;;;;;19.05;3.35;;;;;;;-145.67;100.00;66521.78;4970299;28;20054;-67
2022/09/19 00:20:44;;;;;;;20.42;3.17;;;;;;;-145.67;100.00;66521.78;4968632;28;22094;-69
2022/09/19 00:26:17;;;;;;;19.98;3.03;;;;;;;-145.67;100.00;66521.78;4961868;28;22370;-68
2022/09/19 00:28:45;;;;;;;26.95;2.80;;;;;;;-145.67;100.00;66521.78;4969896;28;20040;-69
2022/09/19 00:31:19;;;;;;;21.23;3.47;;;;;;;-145.67;100.00;66521.78;4983599;28;20042;-69
2022/09/19 00:33:46;;;;;;;18.25;2.53;;;;;;;-145.67;100.00;66521.78;4980592;28;20114;-68
2022/09/19 00:36:13;;;;;;;19.75;3.08;;;;;;;-145.67;100.00;66521.78;4971854;28;20046;-70
2022/09/19 00:38:38;;;;;;;26.25;3.30;;;;;;;-145.67;100.00;66521.78;4966749;28;20046;-70
2022/09/19 00:41:07;;;;;;;21.83;3.70;;;;;;;-145.67;100.00;66521.78;4958914;28;20066;-70
2022/09/19 00:43:43;;;;;;;30.75;3.17;;;;;;;-145.67;100.00;66521.78;4971056;28;20562;-68
2022/09/19 00:46:08;;;;;;;20.13;2.88;;;;;;;-145.67;100.00;66521.78;4971183;28;20402;-72
2022/09/19 00:48:34;;;;;;;21.88;2.97;;;;;;;-145.67;100.00;66521.78;4962410;28;20038;-70
2022/09/19 00:51:01;;;;;;;14.73;2.45;;;;;;;-145.67;100.00;66521.78;4970288;28;20786;-68
2022/09/19 00:53:31;;;;;;;25.67;3.35;;;;;;;-145.67;100.00;66521.78;4961602;28;20061;-67
2022/09/19 00:55:57;;;;;;;25.25;3.25;;;;;;;-145.67;100.00;66521.78;4970042;28;20050;-69
2022/09/19 00:58:34;;;;;;;22.23;3.50;;;;;;;-145.67;100.00;66521.78;4952192;28;20057;-69
2022/09/19 01:00:59;;;;;;;24.98;3.60;;;;;;;-145.67;100.00;66521.78;4945854;28;20517;-69
2022/09/19 01:03:26;;;;;;;23.67;2.90;;;;;;;-145.67;100.00;66521.78;4970738;28;20027;-69
2022/09/19 01:06:10;;;;;;;22.95;3.15;;;;;;;-145.67;100.00;66521.78;4970444;28;20121;-69
2022/09/19 01:08:38;;;;;;;27.55;3.97;;;;;;;-145.67;100.00;66521.78;4971335;28;20038;-69
2022/09/19 01:11:57;;;;;;;19.52;3.10;;;;;;;-145.67;100.00;66521.78;4971066;28;20038;-69
2022/09/19 01:14:39;;;;;;;21.98;2.70;;;;;;;-145.67;100.00;66521.78;4953410;28;20737;-69
2022/09/19 01:17:26;;;;;;;24.48;3.25;;;;;;;-145.67;100.00;66521.78;4952904;28;20717;-68
2022/09/19 01:20:13;;;;;;;22.48;3.65;;;;;;;-145.67;100.00;66521.78;4970949;28;20058;-69
2022/09/19 01:22:58;;;;;;;22.15;2.72;;;;;;;-145.67;100.00;66521.78;4946975;28;20038;-68
2022/09/19 01:25:31;;;;;;;16.98;2.42;;;;;;;-145.67;100.00;66521.78;4935538;28;20182;-69
2022/09/19 01:28:08;;;;;;;30.23;3.45;;;;;;;-145.67;100.00;66521.78;4953611;28;20500;-69
2022/09/19 01:30:34;;;;;;;15.32;2.42;;;;;;;-145.67;100.00;66521.78;4970036;28;20030;-68
2022/09/19 01:33:10;;;;;;;25.73;3.15;;;;;;;-145.67;100.00;66521.78;4960591;28;20042;-69
2022/09/19 01:35:39;;;;;;;22.90;2.67;;;;;;;-145.67;100.00;66521.78;4962113;28;20065;-70
2022/09/19 01:38:11;;;;;;;17.33;2.60;;;;;;;-145.67;100.00;66521.78;4950067;28;20042;-69
2022/09/19 01:40:37;;;;;;;17.80;2.65;;;;;;;-145.67;100.00;66521.78;4937477;28;20519;-70
2022/09/19 01:43:02;;;;;;;18.10;2.67;;;;;;;-145.67;100.00;66521.78;4940807;28;20050;-71
2022/09/19 01:45:30;;;;;;;26.10;3.33;;;;;;;-145.67;100.00;66521.78;4936930;28;20026;-69
2022/09/19 01:48:32;;;;;;;23.35;3.08;;;;;;;-145.67;100.00;66521.78;4948673;28;20034;-69
2022/09/19 01:51:12;;;;;;;14.93;2.45;;;;;;;-145.67;100.00;66521.78;4942324;28;20082;-68
2022/09/19 01:54:04;;;;;;;18.83;2.95;;;;;;;-145.67;100.00;66521.78;4968814;28;20093;-68
2022/09/19 01:56:51;;;;;;;23.90;2.65;;;;;;;-145.67;100.00;66521.78;4950486;28;20030;-68
2022/09/19 01:59:35;;;;;;;26.55;3.30;;;;;;;-145.67;100.00;66521.78;4960596;28;20044;-70
2022/09/19 02:02:29;;;;;;;30.17;3.45;;;;;;;-145.67;100.00;66521.78;4969492;28;20093;-67
2022/09/19 02:05:11;;;;;;;22.83;2.78;;;;;;;-145.67;100.00;66521.78;4921337;28;20165;-67
2022/09/19 02:07:53;;;;;;;;;;;;;;;-145.67;100.00;66521.78;4945496;28;20039;-68
2022/09/19 02:10:21;;;;;;;14.93;2.70;;;;;;;-145.67;100.00;66521.78;4948603;28;19986;-68
2022/09/19 02:12:52;;;;;;;16.80;2.80;;;;;;;-145.67;100.00;66521.78;4948724;28;20042;-69
2022/09/19 02:15:21;;;;;;;29.95;3.50;;;;;;;-145.67;100.00;66521.78;4939458;28;20034;-69
2022/09/19 02:17:52;;;;;;;21.50;3.10;;;;;;;-145.67;100.00;66521.78;4963574;28;20036;-70
2022/09/19 02:20:27;;;;;;;18.02;3.03;;;;;;;-145.67;100.00;66521.78;4954029;28;20054;-70
2022/09/19 02:22:57;;;;;;;16.70;2.55;;;;;;;-145.67;100.00;66521.78;4950395;28;20070;-68
2022/09/19 02:25:30;;;;;;;21.58;3.67;;;;;;;-145.67;100.00;66521.78;4940506;28;20161;-68
2022/09/19 02:28:00;;;;;;;19.25;2.78;;;;;;;-145.67;100.00;66521.78;4949572;28;20039;-68
2022/09/19 02:30:26;;;;;;;21.42;2.90;;;;;;;-145.67;100.00;66521.78;4948689;28;20031;-70
2022/09/19 02:32:53;;;;;;;26.48;3.47;;;;;;;-145.67;100.00;66521.78;4939593;28;20110;-68
2022/09/19 02:35:34;;;;;;;21.02;3.20;;;;;;;-145.67;100.00;66521.78;4977431;28;20045;-69
2022/09/19 02:38:08;;;;;;;25.35;3.10;;;;;;;-145.67;100.00;66521.78;4970715;28;20037;-69
2022/09/19 02:40:50;;;;;;;18.70;2.65;;;;;;;-145.67;100.00;66521.78;4978548;28;20735;-67
2022/09/19 02:43:46;;;;;;;23.83;3.40;;;;;;;-145.67;100.00;66521.78;4923305;28;20168;-70
2022/09/19 02:46:36;;;;;;;26.67;3.35;;;;;;;-145.67;100.00;66521.78;4957040;28;20039;-69
2022/09/19 02:49:16;;;;;;;15.95;2.92;;;;;;;-145.67;100.00;66521.78;4949343;28;20044;-68
2022/09/19 02:51:51;;;;;;;22.52;3.10;;;;;;;-145.67;100.00;66521.78;4928566;28;20042;-67
2022/09/19 02:54:29;;;;;;;19.70;3.00;;;;;;;-145.67;100.00;66521.78;4958877;28;22220;-67
2022/09/19 02:56:59;;;;;;;21.80;3.45;;;;;;;-145.67;100.00;66521.78;4962372;28;20096;-66
2022/09/19 02:59:28;;;;;;;17.05;2.72;;;;;;;-145.67;100.00;66521.78;4957056;28;20038;-69
2022/09/19 03:01:57;;;;;;;18.75;3.35;;;;;;;-145.67;100.00;66521.78;4968301;28;20435;-68
2022/09/19 03:04:29;;;;;;;21.48;2.72;;;;;;;-145.67;100.00;66521.78;4958953;28;20042;-68
2022/09/19 03:07:06;;;;;;;20.02;2.83;;;;;;;-145.67;100.00;66521.78;4961949;28;20042;-68
2022/09/19 03:09:32;;;;;;;21.75;2.83;;;;;;;-145.67;100.00;66521.78;4969656;28;20074;-67
2022/09/19 03:12:41;;;;;;;20.73;2.85;;;;;;;-145.67;100.00;66521.78;4970138;28;20669;-68
2022/09/19 03:15:10;;;;;;;14.13;2.47;;;;;;;-145.67;100.00;66521.78;4940793;28;20050;-68
2022/09/19 03:17:38;;;;;;;19.42;2.90;;;;;;;-145.67;100.00;66521.78;4949705;28;20097;-68
2022/09/19 03:20:05;;;;;;;19.70;2.67;;;;;;;-145.67;100.00;66521.78;4937541;28;20130;-69
2022/09/19 03:22:31;;;;;;;21.30;2.70;;;;;;;-145.67;100.00;66521.78;4964359;28;20038;-67
2022/09/19 03:25:01;;;;;;;18.52;2.65;;;;;;;-145.67;100.00;66521.78;4939614;28;20031;-70
2022/09/19 03:27:30;;;;;;;16.83;2.90;;;;;;;-145.67;100.00;66521.78;4949687;28;20122;-68
2022/09/19 03:29:55;;;;;;;21.55;2.75;;;;;;;-145.67;100.00;66521.78;4948211;28;20133;-69
2022/09/19 03:32:25;;;;;;;19.13;3.30;;;;;;;-145.67;100.00;66521.78;4949669;28;20137;-68
2022/09/19 03:34:53;;;;;;;21.80;3.20;;;;;;;-145.67;100.00;66521.78;4932311;28;20035;-68
2022/09/19 03:37:18;;;;;;;16.10;2.17;;;;;;;-145.67;100.00;66521.78;4949712;28;20046;-68
2022/09/19 03:39:45;;;;;;;16.73;2.50;;;;;;;-145.67;100.00;66521.78;4981169;28;20057;-68
2022/09/19 03:42:10;;;;;;;13.13;2.20;;;;;;;-145.67;100.00;66521.78;4988222;28;20046;-68
2022/09/19 03:44:36;;;;;;;17.45;2.40;;;;;;;-145.67;100.00;66521.78;4989287;28;20054;-68
2022/09/19 03:47:04;;;;;;;18.25;2.70;;;;;;;-145.67;100.00;66521.78;4977938;28;20049;-68
2022/09/19 03:49:30;;;;;;;13.13;2.20;;;;;;;-145.67;100.00;66521.78;4980125;28;20048;-68
2022/09/19 03:52:00;;;;;;;20.45;2.70;;;;;;;-145.67;100.00;66521.78;4987547;28;20557;-67
2022/09/19 03:54:28;;;;;;;21.13;3.20;;;;;;;-145.67;100.00;66521.78;4987796;28;20502;-68
2022/09/19 03:56:56;;;;;;;19.38;2.63;;;;;;;-145.67;100.00;66521.78;4971057;28;20069;-68
2022/09/19 03:59:24;;;;;;;15.95;2.67;;;;;;;-145.67;100.00;66521.78;4988438;28;20212;-68
2022/09/19 04:01:54;;;;;;;16.15;2.35;;;;;;;-145.67;100.00;66521.78;4975825;28;20602;-67
2022/09/19 04:04:21;;;;;;;20.20;2.70;;;;;;;-145.67;100.00;66521.78;4987706;28;20053;-68
2022/09/19 04:06:49;;;;;;;20.67;2.78;;;;;;;-145.67;100.00;66521.78;4988341;28;20065;-69
2022/09/19 04:09:16;;;;;;;21.33;2.83;;;;;;;-145.67;100.00;66521.78;4986351;28;20134;-69
2022/09/19 04:11:42;;;;;;;17.15;2.90;;;;;;;-145.67;100.00;66521.78;4987058;28;20072;-68
2022/09/19 04:14:09;;;;;;;13.60;2.13;;;;;;;-145.67;100.00;66521.78;4977833;28;21646;-69
2022/09/19 04:16:34;;;;;;;18.67;2.72;;;;;;;-145.67;100.00;66521.78;4991342;28;20033;-67
2022/09/19 04:19:00;;;;;;;20.17;2.85;;;;;;;-145.67;100.00;66521.78;4992762;28;20641;-68
2022/09/19 04:21:25;;;;;;;18.45;2.35;;;;;;;-145.67;100.00;66521.78;4990592;28;20651;-67
2022/09/19 04:23:51;;;;;;;19.33;2.40;;;;;;;-145.67;100.00;66521.78;4991061;28;20579;-68
2022/09/19 04:26:16;;;;;;;21.38;2.72;;;;;;;-145.67;100.00;66521.78;4991188;28;20148;-69
2022/09/19 04:28:43;;;;;;;26.13;3.40;;;;;;;-145.67;100.00;66521.78;4991572;28;20046;-68
2022/09/19 04:31:12;;;;;;;15.70;2.78;;;;;;;-145.67;100.00;66521.78;4948059;28;20034;-67
2022/09/19 04:33:38;;;;;;;16.90;2.80;;;;;;;-145.67;100.00;66521.78;4967600;28;20041;-68
2022/09/19 04:36:05;;;;;;;15.68;2.60;;;;;;;-145.67;100.00;66521.78;4974273;28;20941;-69
2022/09/19 04:38:32;;;;;;;14.63;2.15;;;;;;;-145.67;100.00;66521.78;4991789;28;20089;-69
2022/09/19 04:41:00;;;;;;;17.35;2.60;;;;;;;-145.67;100.00;66521.78;4979387;28;22304;-67
2022/09/19 04:43:29;;;;;;;21.30;2.92;;;;;;;-145.67;100.00;66521.78;4989520;28;20141;-70
2022/09/19 04:45:55;;;;;;;18.67;3.17;;;;;;;-145.67;100.00;66521.78;4975921;28;20049;-68
2022/09/19 04:48:22;;;;;;;10.73;2.03;;;;;;;-145.67;100.00;66521.78;4980357;28;20030;-70
2022/09/19 04:50:53;;;;;;;21.08;2.85;;;;;;;-145.67;100.00;66521.78;4992117;28;20065;-69
2022/09/19 04:53:23;;;;;;;16.33;2.40;;;;;;;-145.67;100.00;66521.78;4958200;28;20029;-67
2022/09/19 04:55:55;;;;;;;18.45;2.90;;;;;;;-145.67;100.00;66521.78;4973406;28;20033;-70
2022/09/19 04:58:25;;;;;;;24.10;2.92;;;;;;;-145.67;100.00;66521.78;4991320;28;20157;-69
2022/09/19 05:00:57;;;;;;;15.40;2.42;;;;;;;-145.67;100.00;66521.78;4991286;28;22243;-67
2022/09/19 05:03:30;;;;;;;19.02;2.70;;;;;;;-145.67;100.00;66521.78;4990455;28;20184;-67
2022/09/19 05:05:56;;;;;;;24.00;3.78;;;;;;;-145.67;100.00;66521.78;4991166;28;20048;-67
2022/09/19 05:08:25;;;;;;;23.85;3.50;;;;;;;-145.67;100.00;66521.78;4990152;28;20041;-67
2022/09/19 05:10:57;;;;;;;19.30;2.55;;;;;;;-145.67;100.00;66521.78;4990401;28;20065;-68
2022/09/19 05:13:23;;;;;;;16.15;2.67;;;;;;;-145.67;100.00;66521.78;4989728;28;20376;-67
2022/09/19 05:15:51;;;;;;;21.23;2.25;;;;;;;-145.67;100.00;66521.78;4991920;28;21615;-69
2022/09/19 05:18:20;;;;;;;22.17;3.13;;;;;;;-145.67;100.00;66521.78;4990768;28;20034;-70
2022/09/19 05:20:45;;;;;;;16.75;2.42;;;;;;;-145.67;100.00;66521.78;4977403;28;20042;-69
2022/09/19 05:23:10;;;;;;;13.82;1.98;;;;;;;-145.67;100.00;66521.78;4989686;28;20034;-67
2022/09/19 05:25:38;;;;;;;15.05;2.28;;;;;;;-145.67;100.00;66521.78;4987365;28;20112;-68
2022/09/19 05:28:06;;;;;;;19.85;2.83;;;;;;;-145.67;100.00;66521.78;4988615;28;20041;-70
2022/09/19 05:30:37;;;;;;;18.17;2.67;;;;;;;-145.67;100.00;66521.78;4982589;28;20041;-69
2022/09/19 05:33:03;;;;;;;19.98;3.00;;;;;;;-145.67;100.00;66521.78;4971866;28;20042;-72
2022/09/19 05:35:30;;;;;;;27.42;3.65;;;;;;;-145.67;100.00;66521.78;4991727;28;20046;-72
2022/09/19 05:37:57;;;;;;;18.20;3.10;;;;;;;-145.67;100.00;66521.78;4991432;28;20065;-72
2022/09/19 05:40:23;;;;;;;23.88;4.03;;;;;;;-145.67;100.00;66521.78;4973075;28;21217;-71
2022/09/19 05:42:50;;;;;;;17.42;3.08;;;;;;;-145.67;100.00;66521.78;4978846;28;20064;-68
2022/09/19 05:45:16;;;;;;;23.27;2.88;;;;;;;-145.67;100.00;66521.78;4990740;28;20049;-69
2022/09/19 05:47:41;;;;;;;15.73;2.53;;;;;;;-145.67;100.00;66521.78;4991324;28;20033;-72
2022/09/19 05:50:10;;;;;;;24.30;3.35;;;;;;;-145.67;100.00;66521.78;4992348;28;20120;-71
2022/09/19 05:55:23;;;;;;;27.80;3.65;;;;;;;-145.67;100.00;66521.78;4965185;28;20034;-72
2022/09/19 05:57:53;;;;;;;15.70;3.13;;;;;;;-145.67;100.00;66521.78;4982761;28;20048;-71
2022/09/19 06:00:25;;;;;;;22.63;3.50;;;;;;;-145.67;100.00;66521.78;4980896;28;20100;-71
2022/09/19 06:02:57;;;;;;;23.67;3.38;;;;;;;-145.67;100.00;66521.78;4940742;28;20033;-72
2022/09/19 06:05:26;;;;;;;22.60;3.10;;;;;;;-145.67;100.00;66521.78;4973159;28;20045;-68
2022/09/19 06:07:52;;;;;;;19.65;2.83;;;;;;;-145.67;100.00;66521.78;4966131;28;20060;-69
2022/09/19 06:10:20;;;;;;;18.88;3.13;;;;;;;-145.67;100.00;66521.78;4964258;28;20901;-70
2022/09/19 06:12:46;;;;;;;16.15;2.80;;;;;;;-145.67;100.00;66521.78;4990677;28;20112;-70
2022/09/19 06:15:11;;;;;;;16.40;2.88;;;;;;;-145.67;100.00;66521.78;4991907;28;20038;-69
2022/09/19 06:17:38;;;;;;;19.02;3.28;;;;;;;-145.67;100.00;66521.78;4991116;28;20148;-72
2022/09/19 06:20:03;;;;;;;23.52;2.70;;;;;;;-145.67;100.00;66521.78;4975328;28;20715;-69
2022/09/19 06:22:29;;;;;;;20.48;2.85;;;;;;;-145.67;100.00;66521.78;4973339;28;20030;-69
2022/09/19 06:24:54;;;;;;;21.88;3.40;;;;;;;-145.67;100.00;66521.78;4988884;28;20072;-72
2022/09/19 06:27:23;;;;;;;18.10;2.88;;;;;;;-145.67;100.00;66521.78;4989802;28;22540;-71
2022/09/19 06:29:48;;;;;;;22.90;3.13;;;;;;;-145.67;100.00;66521.78;4990806;28;20041;-69
2022/09/19 06:32:13;;;;;;;23.45;3.75;;;;;;;-145.67;100.00;66521.78;4990453;28;20030;-69
2022/09/19 06:34:39;;;;;;;22.00;3.08;;;;;;;-145.67;100.00;66521.78;4988781;28;20072;-71
2022/09/19 06:37:04;;;;;;;24.60;2.92;;;;;;;-145.67;100.00;66521.78;4981045;28;20116;-71
2022/09/19 06:39:32;;;;;;;26.80;3.00;;;;;;;-145.67;100.00;66521.78;4959875;28;20171;-69
2022/09/19 06:41:57;;;;;;;17.60;2.88;;;;;;;-145.67;100.00;66521.78;4971856;28;20133;-71
2022/09/19 06:44:23;;;;;;;12.75;2.00;;;;;;;-145.67;100.00;66521.78;4990040;28;20022;-69
2022/09/19 06:46:48;;;;;;;14.35;1.98;;;;;;;-145.67;100.00;66521.78;4989548;28;20058;-70
2022/09/19 06:49:14;;;;;;;13.15;2.20;;;;;;;-145.67;100.00;66521.78;4972266;28;20044;-68
2022/09/19 06:51:40;;;;;;;20.40;2.60;;;;;;;-145.67;100.00;66521.78;4959536;28;20037;-72
2022/09/19 06:54:05;;;;;;;19.05;2.50;;;;;;;-145.67;100.00;66521.78;4989706;28;20038;-67
2022/09/19 06:56:33;;;;;;;16.65;2.88;;;;;;;-145.67;100.00;66521.78;4988100;28;20369;-69
2022/09/19 06:58:58;;;;;;;12.65;1.88;;;;;;;-145.67;100.00;66521.78;4989669;28;20053;-67
2022/09/19 07:01:23;;;;;;;17.48;2.60;;;;;;;-145.67;100.00;66521.78;4988157;28;20048;-69
2022/09/19 07:03:49;;;;;;;18.05;3.03;;;;;;;-145.67;100.00;66521.78;4974027;28;20102;-71
2022/09/19 07:06:15;;;;;;;10.63;1.70;;;;;;;-145.67;100.00;66521.78;4988147;28;20437;-68
2022/09/19 07:08:44;;;;;;;15.63;2.20;;;;;;;-145.67;100.00;66521.78;4976236;28;20045;-68
2022/09/19 07:11:09;;;;;;;22.15;2.70;;;;;;;-145.67;100.00;66521.78;4974255;28;20062;-70
2022/09/19 07:13:34;;;;;;;20.63;3.78;;;;;;;-145.67;100.00;66521.78;4989160;28;20034;-70
2022/09/19 07:16:03;;;;;;;23.00;2.75;;;;;;;-145.67;100.00;66521.78;4989715;28;20401;-70
2022/09/19 07:18:35;;;;;;;23.42;3.22;;;;;;;-145.67;100.00;66521.78;4990120;28;20045;-71
2022/09/19 07:21:00;;;;;;;18.88;3.30;;;;;;;-145.67;100.00;66521.78;4975371;28;20049;-69
2022/09/19 07:23:26;;;;;;;23.35;2.88;;;;;;;-145.67;100.00;66521.78;4976123;28;20124;-71
2022/09/19 07:25:55;;;;;;;12.73;2.25;;;;;;;-145.67;100.00;66521.78;4977389;28;20037;-71
2022/09/19 07:28:21;;;;;;;17.50;2.42;;;;;;;-145.67;100.00;66521.78;4975373;28;20283;-69
2022/09/19 07:30:48;;;;;;;19.58;2.75;;;;;;;-145.67;100.00;66521.78;4971606;28;20116;-70
2022/09/19 07:33:16;;;;;;;12.35;2.15;;;;;;;-145.67;100.00;66521.78;4977079;28;20037;-70
2022/09/19 07:35:42;;;;;;;20.23;2.83;;;;;;;-145.67;100.00;66521.78;4974870;28;20029;-70
2022/09/19 07:38:16;;;;;;;22.15;2.72;;;;;;;-145.67;100.00;66521.78;4988041;28;20049;-69
2022/09/19 07:40:42;;;;;;;16.80;3.13;;;;;;;-145.67;100.00;66521.78;4989055;28;20054;-68
2022/09/19 07:43:16;;;;;;;21.45;3.00;;;;;;;-145.67;100.00;66521.78;4976408;28;20533;-67
2022/09/19 07:45:46;;;;;;;25.23;2.92;;;;;;;-145.67;100.00;66521.78;4976880;28;20048;-69
2022/09/19 07:48:12;;;;;;;18.55;2.30;;;;;;;-145.67;100.00;66521.78;4980447;28;20042;-69
2022/09/19 07:50:37;;;;;;;17.80;3.05;;;;;;;-145.67;100.00;66521.78;4989896;28;20041;-71
2022/09/19 07:53:10;;;;;;;20.23;2.83;;;;;;;-145.67;100.00;66521.78;4991036;28;20033;-68
2022/09/19 07:55:36;;;;;;;15.77;2.20;;;;;;;-145.67;100.00;66521.78;4981674;28;20049;-69
2022/09/19 07:58:08;;;;;;;15.98;2.40;;;;;;;-145.67;100.00;66521.78;4986814;28;20036;-70
2022/09/19 08:00:34;;;;;;;;;;;;;;;-145.67;100.00;66521.78;4991833;28;20042;-69
2022/09/19 08:03:02;;;;;;;19.67;2.80;;;;;;;-145.67;100.00;66521.78;4974168;28;20462;-69
2022/09/19 08:05:29;;;;;;;27.00;2.78;;;;;;;-145.67;100.00;66521.78;4979400;28;20037;-70
2022/09/19 08:07:55;;;;;;;19.80;3.13;;;;;;;-145.67;100.00;66521.78;4989587;28;20030;-69
2022/09/19 08:10:21;;;;;;;24.55;3.15;;;;;;;-145.67;100.00;66521.78;4978361;28;20096;-70
2022/09/19 08:12:49;;;;;;;31.45;4.30;;;;;;;-145.67;100.00;66521.78;4990679;28;20486;-72
2022/09/19 08:15:16;;;;;;;18.25;2.60;;;;;;;-145.67;100.00;66521.78;4982793;28;20143;-69
2022/09/19 08:18:05;;;;;;;17.67;2.60;;;;;;;-145.67;100.00;66521.78;4984689;28;20131;-67
2022/09/19 08:20:33;;;;;;;16.55;2.92;;;;;;;-145.67;100.00;66521.78;4992754;28;20391;-69
2022/09/19 08:23:00;;;;;;;17.52;2.85;;;;;;;-145.67;100.00;66521.78;4980016;28;20034;-70
2022/09/19 08:25:27;;;;;;;14.85;2.22;;;;;;;-145.67;100.00;66521.78;4981978;28;20026;-67
2022/09/19 08:27:55;;;;;;;16.98;2.67;;;;;;;-145.67;100.00;66521.78;4984846;28;20092;-68
2022/09/19 08:30:24;;;;;;;18.02;2.70;;;;;;;-145.67;100.00;66521.78;4985257;28;20188;-70
2022/09/19 08:32:50;;;;;;;19.23;2.20;;;;;;;-145.67;100.00;66521.78;4992752;28;20048;-69
2022/09/19 08:35:20;;;;;;;20.00;2.63;;;;;;;-145.67;100.00;66521.78;4992843;28;20139;-71
2022/09/19 08:37:46;;;;;;;18.30;2.70;;;;;;;-145.67;100.00;66521.78;4964629;28;20045;-69
2022/09/19 08:40:27;;;;;;;23.05;3.42;;;;;;;-145.67;100.00;66521.78;4974696;28;20038;-70
2022/09/19 08:43:09;;;;;;;15.43;2.38;;;;;;;-145.67;100.00;66521.78;4989375;28;20526;-70
2022/09/19 08:45:50;;;;;;;19.60;2.63;;;;;;;-145.67;100.00;66521.78;4979695;28;20068;-70
2022/09/19 08:48:38;;;;;;;14.43;2.33;;;;;;;-145.67;100.00;66521.78;4992994;28;20033;-68
2022/09/19 08:51:29;;;;;;;22.42;2.60;;;;;;;-145.67;100.00;66521.78;4992318;28;20040;-68
2022/09/19 08:54:35;;;;;;;20.27;3.15;;;;;;;-145.67;100.00;66521.78;4992230;28;20038;-66
2022/09/19 08:57:00;;;;;;;18.85;2.95;;;;;;;-145.67;100.00;66521.78;4983438;28;20050;-65
2022/09/19 08:59:33;;;;;;;16.55;2.83;;;;;;;-145.67;100.00;66521.78;4990702;28;20451;-68
2022/09/19 09:02:19;;;;;;;15.18;2.20;;;;;;;-145.67;100.00;66521.78;4972422;28;20050;-67
2022/09/19 09:04:45;;;;;;;16.40;2.30;;;;;;;-145.67;100.00;66521.78;4990736;28;20048;-65
2022/09/19 09:07:28;;;;;;;17.05;2.60;;;;;;;-145.67;100.00;66521.78;4991827;28;20045;-64
2022/09/19 09:10:25;;;;;;;19.17;3.25;;;;;;;-145.67;100.00;66521.78;4990931;28;20156;-67
2022/09/19 09:12:58;;;;;;;16.48;2.50;;;;;;;-145.67;100.00;66521.78;4989500;28;20038;-66
2022/09/19 09:15:58;;;;;;;20.27;2.58;;;;;;;-145.67;100.00;66521.78;4993635;28;20038;-66
2022/09/19 09:18:32;;;;;;;16.90;2.20;;;;;;;-145.67;100.00;66521.78;4981687;28;20025;-66
2022/09/19 09:21:03;;;;;;;14.85;2.47;;;;;;;-145.67;100.00;66521.78;5004069;28;22739;-67
2022/09/19 09:23:36;;;;;;;19.48;2.72;;;;;;;-145.67;100.00;66521.78;4992369;28;20154;-66
2022/09/19 09:26:08;;;;;;;19.25;2.30;;;;;;;-145.67;100.00;66521.78;4966037;28;20041;-65
2022/09/19 09:28:41;;;;;;;22.45;3.05;;;;;;;-145.67;100.00;66521.78;4966307;28;20064;-65
2022/09/19 09:31:25;;;;;;;16.73;2.70;;;;;;;-145.67;100.00;66521.78;4978292;28;20033;-66
2022/09/19 09:34:07;;;;;;;17.13;2.85;;;;;;;-145.67;100.00;66521.78;4988877;28;20103;-66
2022/09/19 09:36:42;;;;;;;18.23;2.75;;;;;;;-145.67;100.00;66521.78;4972339;28;20462;-67
2022/09/19 09:39:27;;;;;;;18.30;2.25;;;;;;;-145.67;100.00;66521.78;4971684;28;20057;-65
2022/09/19 09:42:01;;;;;;;19.65;2.40;;;;;;;-145.67;100.00;66521.78;4976979;28;20519;-65
2022/09/19 09:44:43;;;;;;;14.90;2.25;;;;;;;-145.67;100.00;66521.78;4989533;28;20069;-66
2022/09/19 09:47:30;;;;;;;20.35;2.92;;;;;;;-145.67;100.00;66521.78;4976568;28;20038;-66
2022/09/19 09:50:12;;;;;;;19.20;2.85;;;;;;;-145.67;100.00;66521.78;4967298;28;20038;-68
2022/09/19 09:52:47;;;;;;;14.18;2.13;;;;;;;-145.67;100.00;66521.78;4991621;28;20048;-67
2022/09/19 09:58:26;;;;;;;14.55;2.55;;;;;;;-145.67;100.00;66521.78;4989913;28;20105;-65
2022/09/19 10:04:14;;;;;;;18.27;2.20;;;;;;;-145.67;100.00;66521.78;4990325;28;20037;-66
2022/09/19 10:06:51;;;;;;;16.20;2.40;;;;;;;-145.67;100.00;66521.78;4982040;28;20129;-66
2022/09/19 10:09:20;;;;;;;11.63;2.20;;;;;;;-145.67;100.00;66521.78;4989015;28;22163;-66
2022/09/19 10:12:06;;;;;;;15.27;2.50;;;;;;;-145.67;100.00;66521.78;4990852;28;20099;-66
2022/09/19 10:14:35;;;;;;;16.70;2.35;;;;;;;-145.67;100.00;66521.78;4990522;28;20048;-66
2022/09/19 10:17:01;;;;;;;14.68;1.92;;;;;;;-145.67;100.00;66521.78;4957046;28;20041;-67
2022/09/19 10:19:52;;;;;;;14.60;1.90;;;;;;;-145.67;100.00;66521.78;4990674;28;20180;-67
2022/09/19 10:22:18;;;;;;;13.75;1.75;;;;;;;-145.67;100.00;66521.78;4968391;28;20041;-68
2022/09/19 10:24:51;;;;;;;16.65;2.05;;;;;;;-145.67;100.00;66521.78;4986822;28;20037;-67
2022/09/19 10:27:35;;;;;;;14.55;1.90;;;;;;;-145.67;100.00;66521.78;4977463;28;20910;-68
2022/09/19 10:30:07;;;;;;;10.38;1.83;;;;;;;-145.67;100.00;66521.78;4989159;28;20502;-69
2022/09/19 10:32:36;;;;;;;8.43;1.33;;;;;;;-145.67;100.00;66521.78;4970320;28;20148;-66
2022/09/19 10:35:26;;;;;;;14.18;1.92;;;;;;;-145.67;100.00;66521.78;4972512;28;20904;-67
2022/09/19 10:38:01;;;;;;;16.10;2.20;;;;;;;-145.67;100.00;66521.78;4989461;28;20034;-67
2022/09/19 10:40:28;;;;;;;23.02;2.97;;;;;;;-145.67;100.00;66521.78;4987089;28;20045;-66
2022/09/19 10:42:55;;;;;;;12.18;1.67;;;;;;;-145.67;100.00;66521.78;4985504;28;20103;-66
2022/09/19 10:45:25;;;;;;;20.83;2.10;;;;;;;-145.67;100.00;66521.78;4985547;28;20816;-65
2022/09/19 10:47:55;;;;;;;21.25;3.42;;;;;;;-145.67;100.00;66521.78;4985936;28;20117;-67
2022/09/19 10:50:21;;;;;;;12.50;1.55;;;;;;;-145.67;100.00;66521.78;4984923;28;20041;-67
2022/09/19 10:52:47;;;;;;;12.05;1.80;;;;;;;-145.67;100.00;66521.78;4975519;28;20549;-65
2022/09/19 10:55:15;;;;;;;12.40;2.38;;;;;;;-145.67;100.00;66521.78;4962706;28;20033;-66
2022/09/19 10:57:59;;;;;;;13.90;1.67;;;;;;;-145.67;100.00;66521.78;4953815;28;20096;-66
2022/09/19 11:00:48;;;;;;;9.73;1.70;;;;;;;-145.67;100.00;66521.78;4990198;28;22302;-66
2022/09/19 11:03:25;;;;;;;12.68;1.70;;;;;;;-145.67;100.00;66521.78;4967034;28;20422;-67
2022/09/19 11:06:10;;;;;;;9.20;1.45;;;;;;;-145.67;100.00;66521.78;4967174;28;20119;-65
2022/09/19 11:08:44;;;;;;;12.32;1.77;;;;;;;-145.67;100.00;66521.78;4986136;28;20034;-66
2022/09/19 11:11:36;;;;;;;6.82;1.33;;;;;;;-145.67;100.00;66521.78;4985098;28;20914;-67
2022/09/19 11:14:31;;;;;;;14.90;2.03;;;;;;;-145.67;100.00;66521.78;4987318;28;20042;-67
2022/09/19 11:17:29;;;;;;;10.70;1.45;;;;;;;-145.67;100.00;66521.78;4968153;28;20037;-68
2022/09/19 11:20:30;;;;;;;9.50;2.10;;;;;;;-145.67;100.00;66521.78;4989162;28;20037;-66
2022/09/19 11:23:13;;;;;;;7.80;1.38;;;;;;;-145.67;100.00;66521.78;4977621;28;20045;-67
2022/09/19 11:26:05;;;;;;;10.60;1.55;;;;;;;-145.67;100.00;66521.78;4986976;28;20111;-67
2022/09/19 11:28:43;;;;;;;14.48;1.88;;;;;;;-145.67;100.00;66521.78;4949931;28;20046;-67
2022/09/19 11:31:47;;;;;;;18.55;2.45;;;;;;;-145.67;100.00;66521.78;4990264;28;20176;-68
2022/09/19 11:34:50;;;;;;;21.05;3.20;;;;;;;-145.67;100.00;66521.78;4991566;28;20434;-66
2022/09/19 11:37:53;;;;;;;26.13;3.17;;;;;;;-145.67;100.00;66521.78;4986520;28;20034;-68